createdAt,value
2023-10-05T00:01:00.173Z,90.93
2023-10-05T00:04:04.523Z,90.25
2023-10-05T00:07:25.468Z,91.37
2023-10-05T00:10:29.865Z,92.04
2023-10-05T00:13:35.807Z,91.59
2023-10-05T00:16:41.221Z,91.25
2023-10-05T00:19:45.826Z,91.30
2023-10-05T00:22:53.876Z,91.15
2023-10-05T00:26:01.082Z,92.79
2023-10-05T00:29:17.671Z,92.39
2023-10-05T00:32:36.620Z,92.11
2023-10-05T00:35:40.997Z,91.71
2023-10-05T00:38:45.430Z,92.55
2023-10-05T00:45:33.426Z,91.73
2023-10-05T00:48:38.288Z,92.70
2023-10-05T00:51:46.389Z,91.44
2023-10-05T00:54:52.786Z,91.58
2023-10-05T00:57:57.592Z,91.15
2023-10-05T01:01:07.377Z,92.01
2023-10-05T01:04:12.031Z,91.68
2023-10-05T01:07:39.806Z,90.63
2023-10-05T01:10:47.022Z,91.73
2023-10-05T01:13:51.504Z,91.02
2023-10-05T01:17:01.105Z,90.89
2023-10-05T01:20:11.079Z,92.46
2023-10-05T01:23:17.575Z,92.56
2023-10-05T01:26:23.042Z,92.69
2023-10-05T01:29:27.337Z,92.48
2023-10-05T01:32:31.289Z,92.19
2023-10-05T01:35:40.323Z,92.46
2023-10-05T01:38:46.798Z,91.57
2023-10-05T01:41:51.422Z,91.14
2023-10-05T01:44:55.292Z,90.81
2023-10-05T01:48:07.361Z,93.81
2023-10-05T01:51:24.337Z,92.90
2023-10-05T01:54:30.941Z,92.88
2023-10-05T01:57:35.465Z,92.47
2023-10-05T02:00:43.684Z,92.28
2023-10-05T02:03:48.212Z,90.87
2023-10-05T02:06:54.747Z,91.43
2023-10-05T02:09:59.936Z,91.03
2023-10-05T02:13:04.688Z,91.32
2023-10-05T02:16:28.404Z,90.23
2023-10-05T02:19:33.586Z,92.56
2023-10-05T02:22:38.050Z,91.08
2023-10-05T02:25:42.578Z,91.18
2023-10-05T02:28:47.000Z,90.70
2023-10-05T02:32:04.232Z,89.51
2023-10-05T02:35:27.427Z,91.50
2023-10-05T02:38:31.717Z,91.69
2023-10-05T02:41:41.839Z,91.34
2023-10-05T02:44:48.095Z,91.17
2023-10-05T02:47:54.095Z,89.77
2023-10-05T02:50:58.922Z,90.94
2023-10-05T02:54:12.090Z,90.59
2023-10-05T02:57:18.771Z,90.52
2023-10-05T03:00:23.438Z,90.43
2023-10-05T03:03:28.708Z,89.00
2023-10-05T03:06:33.361Z,90.17
2023-10-05T03:09:38.949Z,91.25
2023-10-05T03:12:42.974Z,91.11
2023-10-05T03:15:47.332Z,91.28
2023-10-05T03:18:54.700Z,90.64
2023-10-05T03:22:04.159Z,90.92
2023-10-05T03:25:10.437Z,93.24
2023-10-05T03:28:17.972Z,95.42
2023-10-05T03:31:34.396Z,97.49
2023-10-05T03:34:44.912Z,100.00
2023-10-05T03:37:49.536Z,100.00
2023-10-05T03:40:53.879Z,100.00
2023-10-05T03:44:03.028Z,100.00
2023-10-05T03:47:07.706Z,100.00
2023-10-05T03:50:19.842Z,100.00
2023-10-05T03:53:30.448Z,100.00
2023-10-05T03:56:36.698Z,100.00
2023-10-05T03:59:42.202Z,100.00
2023-10-05T04:02:46.997Z,100.00
2023-10-05T04:05:53.098Z,100.00
2023-10-05T04:08:59.931Z,100.00
2023-10-05T04:12:07.340Z,100.00
2023-10-05T04:15:15.343Z,100.00
2023-10-05T04:18:25.126Z,98.76
2023-10-05T04:21:29.470Z,99.50
2023-10-05T04:24:34.858Z,100.00
2023-10-05T04:27:43.152Z,100.00
2023-10-05T04:30:47.389Z,99.98
2023-10-05T04:33:53.031Z,100.00
2023-10-05T04:36:57.220Z,100.00
2023-10-05T04:40:02.211Z,100.00
2023-10-05T04:43:12.996Z,100.00
2023-10-05T04:46:21.786Z,100.00
2023-10-05T04:49:26.625Z,100.00
2023-10-05T04:52:35.535Z,100.00
2023-10-05T04:55:44.842Z,100.00
2023-10-05T04:59:08.987Z,100.00
2023-10-05T05:02:20.086Z,100.00
2023-10-05T05:05:37.917Z,100.00
2023-10-05T05:08:46.202Z,100.00
2023-10-05T05:11:54.580Z,100.00
2023-10-05T05:20:23.025Z,96.09
2023-10-05T05:23:27.138Z,99.33
2023-10-05T05:26:32.329Z,99.08
2023-10-05T05:29:36.262Z,100.00
2023-10-05T05:32:41.595Z,100.00
2023-10-05T05:35:47.120Z,100.00
2023-10-05T05:38:54.771Z,100.00
2023-10-05T05:42:01.729Z,100.00
2023-10-05T05:45:11.324Z,100.00
2023-10-05T05:48:18.594Z,100.00
2023-10-05T05:51:26.271Z,100.00
2023-10-05T05:54:33.825Z,98.33
2023-10-05T05:57:38.368Z,97.27
2023-10-05T06:00:43.255Z,97.39
2023-10-05T06:03:51.246Z,97.23
2023-10-05T06:06:55.593Z,97.73
2023-10-05T06:15:17.247Z,97.71
2023-10-05T06:18:21.911Z,98.91
2023-10-05T06:21:27.245Z,99.76
2023-10-05T06:24:44.015Z,100.00
2023-10-05T06:27:49.507Z,99.93
2023-10-05T06:30:54.909Z,98.23
2023-10-05T06:33:59.633Z,98.08
2023-10-05T06:37:04.274Z,98.36
2023-10-05T06:40:15.365Z,97.51
2023-10-05T06:43:20.115Z,95.75
2023-10-05T06:46:29.047Z,96.53
2023-10-05T06:49:33.262Z,94.48
2023-10-05T06:52:41.588Z,95.70
2023-10-05T06:55:45.721Z,92.96
2023-10-05T06:58:49.894Z,93.29
2023-10-05T07:01:54.616Z,93.92
2023-10-05T07:09:47.823Z,89.38
2023-10-05T07:12:52.366Z,90.08
2023-10-05T07:15:57.090Z,89.55
2023-10-05T07:19:02.249Z,91.25
2023-10-05T07:22:06.928Z,89.29
2023-10-05T07:25:16.538Z,90.92
2023-10-05T07:28:21.259Z,89.76
2023-10-05T07:31:25.744Z,87.33
2023-10-05T07:34:31.720Z,89.94
2023-10-05T07:37:38.951Z,88.89
2023-10-05T07:40:45.826Z,88.62
2023-10-05T07:44:05.435Z,87.40
2023-10-05T07:47:16.285Z,87.46
2023-10-05T07:50:20.898Z,88.09
2023-10-05T07:53:28.119Z,88.89
2023-10-05T07:56:37.838Z,88.74
2023-10-05T07:59:44.277Z,88.52
2023-10-05T08:02:50.829Z,87.95
2023-10-05T08:05:56.969Z,87.68
2023-10-05T08:09:08.236Z,87.94
2023-10-05T08:12:13.686Z,87.88
2023-10-05T08:15:21.687Z,86.90
2023-10-05T08:18:27.925Z,88.42
2023-10-05T08:21:32.663Z,88.21
2023-10-05T08:24:37.481Z,88.07
2023-10-05T08:27:44.496Z,87.81
2023-10-05T08:31:07.145Z,87.63
2023-10-05T08:34:16.143Z,87.51
2023-10-05T08:37:24.512Z,87.55
2023-10-05T08:40:37.668Z,87.43
2023-10-05T08:43:42.676Z,87.93
2023-10-05T08:46:47.213Z,87.02
2023-10-05T08:49:53.359Z,86.48
2023-10-05T08:52:58.249Z,85.25
2023-10-05T08:56:03.647Z,86.09
2023-10-05T08:59:09.649Z,84.59
2023-10-05T09:02:20.540Z,84.50
2023-10-05T09:05:26.540Z,84.41
2023-10-05T09:08:44.120Z,84.69
2023-10-05T09:11:50.174Z,84.37
2023-10-05T09:15:26.599Z,82.57
2023-10-05T09:18:30.938Z,82.53
2023-10-05T09:21:57.877Z,81.66
2023-10-05T09:25:17.331Z,81.04
2023-10-05T09:28:36.227Z,81.41
2023-10-05T09:31:43.714Z,80.51
2023-10-05T09:34:52.215Z,81.11
2023-10-05T09:38:03.960Z,81.32
2023-10-05T09:41:09.665Z,81.22
2023-10-05T09:44:18.029Z,81.09
2023-10-05T09:47:35.765Z,80.47
2023-10-05T09:50:42.348Z,80.41
2023-10-05T09:53:49.026Z,77.37
2023-10-05T09:56:54.330Z,78.57
2023-10-05T10:00:02.331Z,79.10
2023-10-05T10:03:15.300Z,76.46
2023-10-05T10:06:22.082Z,77.65
2023-10-05T10:09:29.325Z,77.12
2023-10-05T10:12:40.542Z,78.06
2023-10-05T10:15:49.068Z,78.47
2023-10-05T10:18:54.828Z,79.35
2023-10-05T10:22:09.235Z,77.61
2023-10-05T10:25:32.851Z,75.47
2023-10-05T10:31:00.603Z,76.37
2023-10-05T10:32:34.679Z,76.76
2023-10-05T10:35:44.047Z,77.44
2023-10-05T10:38:54.819Z,78.05
2023-10-05T10:42:20.891Z,76.97
2023-10-05T10:45:26.711Z,76.79
2023-10-05T10:48:38.695Z,75.54
2023-10-05T10:51:44.009Z,74.74
2023-10-05T10:54:52.288Z,75.07
2023-10-05T10:57:56.225Z,75.94
2023-10-05T11:01:05.394Z,75.66
2023-10-05T11:04:26.033Z,75.55
2023-10-05T11:07:36.498Z,76.10
2023-10-05T11:10:45.209Z,74.78
2023-10-05T11:14:08.781Z,73.89
2023-10-05T11:17:36.905Z,73.34
2023-10-05T11:20:44.085Z,74.56
2023-10-05T11:24:01.733Z,74.97
2023-10-05T11:27:17.937Z,74.89
2023-10-05T11:30:27.145Z,75.13
2023-10-05T11:34:26.788Z,74.41
2023-10-05T11:37:37.268Z,74.23
2023-10-05T11:40:45.765Z,74.33
2023-10-05T11:43:56.072Z,72.85
2023-10-05T11:47:09.431Z,73.48
2023-10-05T11:50:26.363Z,72.85
2023-10-05T11:53:42.030Z,73.27
2023-10-05T11:56:55.990Z,72.59
2023-10-05T12:00:08.783Z,72.23
2023-10-05T12:03:31.314Z,71.78
2023-10-05T12:06:41.872Z,71.53
2023-10-05T12:09:51.663Z,71.52
2023-10-05T12:12:57.014Z,71.81
2023-10-05T12:16:14.951Z,71.37
2023-10-05T12:19:49.063Z,70.22
2023-10-05T12:23:37.850Z,70.32
2023-10-05T12:26:53.024Z,71.78
2023-10-05T12:30:23.903Z,71.21
2023-10-05T12:34:17.583Z,69.27
2023-10-05T12:37:51.805Z,70.87
2023-10-05T12:40:56.977Z,70.97
2023-10-05T12:44:04.347Z,70.97
2023-10-05T12:47:11.585Z,71.16
2023-10-05T12:50:16.133Z,70.88
2023-10-05T12:53:20.358Z,69.20
2023-10-05T12:56:25.148Z,69.91
2023-10-05T12:59:30.949Z,70.48
2023-10-05T13:02:35.328Z,70.54
2023-10-05T13:05:45.482Z,70.23
2023-10-05T13:08:50.500Z,70.27
2023-10-05T13:11:55.907Z,69.86
2023-10-05T13:15:01.769Z,70.00
2023-10-05T13:18:21.872Z,67.91
2023-10-05T13:21:27.788Z,70.11
2023-10-05T13:24:34.002Z,69.96
2023-10-05T13:27:38.765Z,69.27
2023-10-05T13:30:49.510Z,70.47
2023-10-05T13:33:59.964Z,70.02
2023-10-05T13:37:04.545Z,70.06
2023-10-05T13:40:09.256Z,68.11
2023-10-05T13:43:15.650Z,69.09
2023-10-05T13:46:23.904Z,68.79
2023-10-05T13:49:32.447Z,69.71
2023-10-05T13:52:41.182Z,70.27
2023-10-05T13:55:47.520Z,69.51
2023-10-05T13:58:53.484Z,69.94
2023-10-05T14:02:02.773Z,69.60
2023-10-05T14:05:08.972Z,70.12
2023-10-05T14:08:15.286Z,69.71
2023-10-05T14:11:20.550Z,70.04
2023-10-05T14:14:37.943Z,69.12
2023-10-05T14:17:42.819Z,68.77
2023-10-05T14:20:53.925Z,69.18
2023-10-05T14:24:01.580Z,69.27
2023-10-05T14:27:07.245Z,69.53
2023-10-05T14:30:12.529Z,70.08
2023-10-05T14:33:21.650Z,70.31
2023-10-05T14:36:27.864Z,69.87
2023-10-05T14:39:36.615Z,70.48
2023-10-05T14:42:42.516Z,70.79
2023-10-05T14:45:50.748Z,72.18
2023-10-05T14:48:59.966Z,74.35
2023-10-05T14:52:04.670Z,75.42
2023-10-05T14:55:11.263Z,75.79
2023-10-05T14:58:15.775Z,76.74
2023-10-05T15:01:22.069Z,76.75
2023-10-05T15:04:26.814Z,77.47
2023-10-05T15:07:34.079Z,78.53
2023-10-05T15:10:38.713Z,78.86
2023-10-05T15:13:42.773Z,79.41
2023-10-05T15:16:47.193Z,79.40
2023-10-05T15:19:52.377Z,80.19
2023-10-05T15:22:56.800Z,80.27
2023-10-05T15:26:01.130Z,80.44
2023-10-05T15:29:08.022Z,80.08
2023-10-05T15:32:13.430Z,80.90
2023-10-05T15:35:19.731Z,81.55
2023-10-05T15:38:28.416Z,81.90
2023-10-05T15:41:32.735Z,81.54
2023-10-05T15:44:37.085Z,82.18
2023-10-05T15:47:45.173Z,82.91
2023-10-05T15:50:50.436Z,82.34
2023-10-05T15:53:59.172Z,82.24
2023-10-05T15:57:05.992Z,82.29
2023-10-05T16:00:17.747Z,82.34
2023-10-05T16:03:22.132Z,82.93
2023-10-05T16:06:27.212Z,84.58
2023-10-05T16:09:31.813Z,85.70
2023-10-05T16:12:36.292Z,85.45
2023-10-05T16:15:41.916Z,86.90
2023-10-05T16:18:49.034Z,86.50
2023-10-05T16:21:53.808Z,85.97
2023-10-05T16:24:58.854Z,85.51
2023-10-05T16:28:04.126Z,85.18
2023-10-05T16:31:10.559Z,88.55
2023-10-05T16:34:16.015Z,87.15
2023-10-05T16:37:23.037Z,88.27
2023-10-05T16:40:31.171Z,86.95
2023-10-05T16:43:35.540Z,86.00
2023-10-05T16:46:40.168Z,86.62
2023-10-05T16:49:47.011Z,86.41
2023-10-05T16:52:53.253Z,86.14
2023-10-05T16:55:57.231Z,86.40
2023-10-05T16:59:09.191Z,86.18
2023-10-05T17:02:13.570Z,86.63
2023-10-05T17:05:19.234Z,86.64
2023-10-05T17:08:23.815Z,87.15
2023-10-05T17:11:30.002Z,88.42
2023-10-05T17:14:33.988Z,88.59
2023-10-05T17:17:39.675Z,87.97
2023-10-05T17:20:44.870Z,87.39
2023-10-05T17:23:49.275Z,88.19
2023-10-05T17:26:54.303Z,88.73
2023-10-05T17:29:59.934Z,89.01
2023-10-05T17:33:04.441Z,89.14
2023-10-05T17:36:09.791Z,89.06
2023-10-05T17:39:16.126Z,88.40
2023-10-05T17:42:20.923Z,88.46
2023-10-05T17:45:29.316Z,88.32
2023-10-05T17:48:34.000Z,87.82
2023-10-05T17:51:41.470Z,88.92
2023-10-05T17:54:45.756Z,89.25
2023-10-05T17:57:50.191Z,89.54
2023-10-05T18:00:54.240Z,89.35
2023-10-05T18:03:58.832Z,89.44
2023-10-05T18:07:02.815Z,89.14
2023-10-05T18:10:10.385Z,89.42
2023-10-05T18:13:14.327Z,89.62
2023-10-05T18:16:19.339Z,89.35
2023-10-05T18:19:25.643Z,89.53
2023-10-05T18:22:31.955Z,90.02
2023-10-05T18:25:40.690Z,90.36
2023-10-05T18:28:45.756Z,90.57
2023-10-05T18:31:52.792Z,90.58
2023-10-05T18:34:57.754Z,90.39
2023-10-05T18:38:09.286Z,90.78
2023-10-05T18:41:13.908Z,90.59
2023-10-05T18:44:18.180Z,90.19
2023-10-05T18:47:24.665Z,90.99
2023-10-05T18:50:29.353Z,90.67
2023-10-05T18:53:33.522Z,91.10
2023-10-05T18:56:38.589Z,90.75
2023-10-05T18:59:43.169Z,90.45
2023-10-05T19:02:49.426Z,89.95
2023-10-05T19:05:53.838Z,89.40
2023-10-05T19:08:59.170Z,89.09
2023-10-05T19:12:03.697Z,88.47
2023-10-05T19:15:09.034Z,88.10
2023-10-05T19:18:14.958Z,89.96
2023-10-05T19:21:21.141Z,88.18
2023-10-05T19:24:28.404Z,88.45
2023-10-05T19:27:35.339Z,88.88
2023-10-05T19:30:40.580Z,88.74
2023-10-05T19:33:45.917Z,89.04
2023-10-05T19:36:51.446Z,88.30
2023-10-05T19:39:55.507Z,88.80
2023-10-05T19:42:59.941Z,88.43
2023-10-05T19:46:05.913Z,88.90
2023-10-05T19:49:10.396Z,88.60
2023-10-05T19:52:15.644Z,88.23
2023-10-05T19:55:19.542Z,88.88
2023-10-05T19:58:24.222Z,89.13
2023-10-05T20:01:28.966Z,88.90
2023-10-05T20:04:33.282Z,89.43
2023-10-05T20:07:38.619Z,89.76
2023-10-05T20:10:43.650Z,89.35
2023-10-05T20:13:47.849Z,89.16
2023-10-05T20:16:52.407Z,88.49
2023-10-05T20:19:56.788Z,88.76
2023-10-05T20:23:02.184Z,88.66
2023-10-05T20:26:09.645Z,88.63
2023-10-05T20:29:14.157Z,88.62
2023-10-05T20:32:19.246Z,89.34
2023-10-05T20:35:24.413Z,89.46
2023-10-05T20:38:28.336Z,90.53
2023-10-05T20:41:34.663Z,89.45
2023-10-05T20:44:38.647Z,89.20
2023-10-05T20:47:43.345Z,89.29
2023-10-05T20:50:48.007Z,89.89
2023-10-05T20:53:52.790Z,90.68
2023-10-05T20:56:57.599Z,91.04
2023-10-05T21:00:02.172Z,90.39
2023-10-05T21:03:09.708Z,90.08
2023-10-05T21:06:17.009Z,89.56
2023-10-05T21:09:22.265Z,88.66
2023-10-05T21:12:26.230Z,89.37
2023-10-05T21:15:30.903Z,89.07
2023-10-05T21:18:34.768Z,89.60
2023-10-05T21:21:39.307Z,89.97
2023-10-05T21:24:44.007Z,89.11
2023-10-05T21:27:49.612Z,88.44
2023-10-05T21:30:53.647Z,88.80
2023-10-05T21:34:08.823Z,88.48
2023-10-05T21:37:13.129Z,87.95
2023-10-05T21:40:18.208Z,88.73
2023-10-05T21:43:22.717Z,88.72
2023-10-05T21:46:28.694Z,88.34
2023-10-05T21:49:32.625Z,88.66
2023-10-05T21:52:37.497Z,89.57
2023-10-05T21:55:43.968Z,88.79
2023-10-05T21:58:49.083Z,88.95
2023-10-05T22:01:53.871Z,88.82
2023-10-05T22:04:59.094Z,88.55
2023-10-05T22:08:03.935Z,88.96
2023-10-05T22:11:10.656Z,88.97
2023-10-05T22:14:15.816Z,88.98
2023-10-05T22:17:22.924Z,89.26
2023-10-05T22:20:33.304Z,88.97
2023-10-05T22:23:37.415Z,89.08
2023-10-05T22:26:42.352Z,89.04
2023-10-05T22:29:46.376Z,89.33
2023-10-05T22:32:51.366Z,88.77
2023-10-05T22:35:55.868Z,88.71
2023-10-05T22:39:00.379Z,89.04
2023-10-05T22:42:05.379Z,88.10
2023-10-05T22:45:11.157Z,88.67
2023-10-05T22:48:15.563Z,89.09
2023-10-05T22:51:23.801Z,88.68
2023-10-05T22:54:28.664Z,88.52
2023-10-05T22:57:35.726Z,88.15
2023-10-05T23:00:50.620Z,88.44
2023-10-05T23:03:54.630Z,88.46
2023-10-05T23:07:11.488Z,87.89
2023-10-05T23:10:17.296Z,87.38
2023-10-05T23:13:22.795Z,88.21
2023-10-05T23:16:30.739Z,88.26
2023-10-05T23:19:40.505Z,87.91
2023-10-05T23:22:47.906Z,88.18
2023-10-05T23:25:52.655Z,88.30
2023-10-05T23:29:05.400Z,88.18
2023-10-05T23:32:10.224Z,87.67
2023-10-05T23:35:17.724Z,88.49
2023-10-05T23:38:23.153Z,88.26
2023-10-05T23:41:27.313Z,87.39
2023-10-05T23:44:31.810Z,87.14
2023-10-05T23:47:54.310Z,86.73
2023-10-05T23:51:00.948Z,87.48
2023-10-05T23:54:08.240Z,88.16
2023-10-05T23:57:19.303Z,87.52
